This is the latest recevied weather packets stored in our database for station/object W5ALL-WX. If no packets are shown the sender has not sent any weather packets the latest 1 day(s).
| Time | Temp. | Humidity | Pressure | Rain* | Wind** | Luminosity | Snow |
|---|---|---|---|---|---|---|---|
| 1778090229 | 21.67° C | 15% | 1015.3 hPa | 0 mm | - | - | - |
| 1778089929 | 21.67° C | 16% | 1015.2 hPa | 0 mm | - | - | - |
| 1778089629 | 21.67° C | 19% | 1015.2 hPa | 0 mm | - | - | - |
| 1778089329 | 21.11° C | 19% | 1015.2 hPa | 0 mm | - | - | - |
| 1778089029 | 21.67° C | 18% | 1015.2 hPa | 0 mm | - | - | - |
| 1778088729 | 21.67° C | 17% | 1015.2 hPa | 0 mm | - | - | - |
| 1778088429 | 21.67° C | 18% | 1015.3 hPa | 0 mm | - | - | - |
| 1778088129 | 21.67° C | 17% | 1015.3 hPa | 0 mm | - | - | - |
| 1778087829 | 21.67° C | 18% | 1015.3 hPa | 0 mm | - | - | - |
| 1778087529 | 21.11° C | 19% | 1015.2 hPa | 0 mm | - | - | - |
| 1778087229 | 21.11° C | 18% | 1015.3 hPa | 0 mm | - | - | - |
| 1778086929 | 21.67° C | 19% | 1015.2 hPa | 0 mm | - | - | - |
| 1778086029 | 20° C | 22% | 1015 hPa | 0 mm | - | - | - |
| 1778085429 | 20° C | 21% | 1015.2 hPa | 0 mm | - | - | - |
| 1778064248 | 15° C | 42% | 1013.6 hPa | 0 mm | - | - | - |
| 1778062932 | 15.56° C | 41% | 1013.5 hPa | 0 mm | - | - | - |
| 1778062332 | 16.11° C | 40% | 1013.5 hPa | 0 mm | - | - | - |
| 1778062032 | 16.11° C | 39% | 1013.5 hPa | 0 mm | - | - | - |
| 1778061732 | 16.11° C | 40% | 1013.3 hPa | 0 mm | - | - | - |
| 1778061132 | 15° C | 42% | 1013.3 hPa | 0 mm | - | - | - |
| 1778060232 | 15° C | 42% | 1013.2 hPa | 0 mm | - | - | - |
| 1778059932 | 15.56° C | 42% | 1013.2 hPa | 0 mm | - | - | - |
| 1778059632 | 15.56° C | 41% | 1013.1 hPa | 0 mm | - | - | - |
| 1778059332 | 15.56° C | 40% | 1013.1 hPa | 0 mm | - | - | - |
| 1778059032 | 15.56° C | 40% | 1013.1 hPa | 0 mm | - | - | - |
* Rain latest hour (hover to see other rain measurements)
** Current wind speed in m/s (hover to see current wind gust speed)